Time;durP1;ratioP1;P1;durP2;ratioP2;P2;SDS_P1;SDS_P2;PMS_P1;PMS_P2;Temp;Humidity;BMP_temperature;BMP_pressure;BME280_temperature;BME280_humidity;BME280_pressure;Samples;Min_cycle;Max_cycle;Signal;HPM_P1;HPM_P2
2021/06/16 00:00:15;;;;;;;5.90;3.20;;;;;;;;;;4977319;28;20896;-89
2021/06/16 00:02:41;;;;;;;7.00;2.92;;;;;;;;;;4957398;28;20375;-89
2021/06/16 00:05:12;;;;;;;5.43;2.90;;;;;;;;;;4957026;28;20481;-90
2021/06/16 00:07:38;;;;;;;4.47;2.90;;;;;;;;;;4957589;28;20418;-89
2021/06/16 00:10:05;;;;;;;4.03;2.40;;;;;;;;;;4956962;28;20462;-90
2021/06/16 00:12:31;;;;;;;6.57;2.97;;;;;;;;;;4956526;28;20386;-90
2021/06/16 00:14:57;;;;;;;6.32;3.03;;;;;;;;;;4957042;28;20452;-91
2021/06/16 00:17:23;;;;;;;4.55;2.60;;;;;;;;;;4956851;28;20892;-88
2021/06/16 00:19:49;;;;;;;8.07;3.08;;;;;;;;;;4956769;28;20394;-88
2021/06/16 00:22:15;;;;;;;3.70;2.55;;;;;;;;;;4956608;28;20743;-89
2021/06/16 00:24:42;;;;;;;5.13;2.65;;;;;;;;;;4974240;28;20375;-88
2021/06/16 00:27:08;;;;;;;4.10;2.58;;;;;;;;;;4956366;28;20381;-88
2021/06/16 00:29:34;;;;;;;4.32;2.58;;;;;;;;;;4956730;28;20471;-89
2021/06/16 00:32:00;;;;;;;4.68;2.53;;;;;;;;;;4956655;28;20474;-90
2021/06/16 00:34:26;;;;;;;5.00;2.60;;;;;;;;;;4956130;28;20711;-89
2021/06/16 00:36:52;;;;;;;3.93;2.50;;;;;;;;;;4956627;28;20896;-90
2021/06/16 00:39:18;;;;;;;6.90;2.90;;;;;;;;;;4955285;28;20421;-89
2021/06/16 00:41:44;;;;;;;5.27;3.07;;;;;;;;;;4956390;28;20895;-89
2021/06/16 00:44:11;;;;;;;3.83;2.67;;;;;;;;;;4956505;28;20740;-89
2021/06/16 00:46:37;;;;;;;5.28;2.67;;;;;;;;;;4956536;28;20708;-89
2021/06/16 00:49:04;;;;;;;3.58;2.78;;;;;;;;;;4973781;28;20433;-89
2021/06/16 00:51:30;;;;;;;4.18;2.83;;;;;;;;;;4956721;28;20398;-89
2021/06/16 00:53:56;;;;;;;4.28;2.60;;;;;;;;;;4955825;28;20425;-89
2021/06/16 00:56:23;;;;;;;5.32;2.90;;;;;;;;;;4974119;28;20410;-88
2021/06/16 00:58:49;;;;;;;4.53;2.75;;;;;;;;;;4974926;28;20889;-89
2021/06/16 01:01:24;;;;;;;5.25;3.08;;;;;;;;;;4956918;28;20450;-89
2021/06/16 01:03:53;;;;;;;6.30;3.45;;;;;;;;;;4956179;28;20389;-88
2021/06/16 01:06:26;;;;;;;7.40;3.10;;;;;;;;;;4956621;28;20863;-88
2021/06/16 01:09:01;;;;;;;5.38;2.55;;;;;;;;;;4956791;28;20398;-87
2021/06/16 01:11:28;;;;;;;3.55;2.75;;;;;;;;;;4956567;28;20386;-88
2021/06/16 01:13:54;;;;;;;4.35;2.55;;;;;;;;;;4955574;28;20375;-89
2021/06/16 01:16:24;;;;;;;4.97;3.07;;;;;;;;;;4956195;28;20421;-89
2021/06/16 01:18:52;;;;;;;5.20;2.88;;;;;;;;;;4973175;28;20379;-89
2021/06/16 01:21:19;;;;;;;4.15;3.08;;;;;;;;;;4955584;28;20383;-89
2021/06/16 01:23:57;;;;;;;5.38;3.00;;;;;;;;;;4956296;28;20387;-88
2021/06/16 01:26:30;;;;;;;5.40;2.90;;;;;;;;;;4972899;28;20414;-88
2021/06/16 01:28:59;;;;;;;4.38;2.92;;;;;;;;;;4973253;28;20378;-88
2021/06/16 01:31:26;;;;;;;5.53;3.00;;;;;;;;;;4956137;28;20403;-88
2021/06/16 01:33:53;;;;;;;6.85;3.15;;;;;;;;;;4956339;28;20445;-89
2021/06/16 01:36:21;;;;;;;6.13;3.03;;;;;;;;;;4957074;28;20406;-87
2021/06/16 01:38:47;;;;;;;3.30;2.80;;;;;;;;;;4960810;28;20743;-88
2021/06/16 01:41:13;;;;;;;5.80;3.40;;;;;;;;;;4958964;28;20379;-87
2021/06/16 01:43:40;;;;;;;5.47;2.93;;;;;;;;;;4957237;28;20398;-89
2021/06/16 01:46:08;;;;;;;5.88;3.00;;;;;;;;;;4956288;28;20469;-89
2021/06/16 01:48:34;;;;;;;5.00;2.85;;;;;;;;;;4955608;28;20423;-87
2021/06/16 01:51:00;;;;;;;5.70;3.00;;;;;;;;;;4955840;28;20486;-88
2021/06/16 01:53:27;;;;;;;6.18;3.25;;;;;;;;;;4956195;28;20489;-87
2021/06/16 01:55:53;;;;;;;4.07;3.33;;;;;;;;;;4973267;28;20917;-86
2021/06/16 01:58:20;;;;;;;5.43;3.17;;;;;;;;;;4956303;28;20793;-87
2021/06/16 02:00:46;;;;;;;5.75;3.40;;;;;;;;;;4956269;28;20383;-87
2021/06/16 02:03:13;;;;;;;3.33;3.00;;;;;;;;;;4954985;28;20481;-89
2021/06/16 02:05:39;;;;;;;5.65;3.53;;;;;;;;;;4955458;28;20390;-89
2021/06/16 02:08:06;;;;;;;6.60;3.20;;;;;;;;;;4955206;28;20407;-89
2021/06/16 02:10:43;;;;;;;5.68;3.60;;;;;;;;;;4955353;28;20375;-88
2021/06/16 02:13:10;;;;;;;5.75;3.28;;;;;;;;;;4955866;28;20382;-87
2021/06/16 02:15:46;;;;;;;6.57;3.57;;;;;;;;;;4973543;28;20420;-89
2021/06/16 02:18:13;;;;;;;6.38;3.53;;;;;;;;;;4954601;28;20401;-89
2021/06/16 02:20:39;;;;;;;5.10;3.50;;;;;;;;;;4956149;28;20475;-87
2021/06/16 02:23:06;;;;;;;4.90;3.63;;;;;;;;;;4954861;28;20394;-89
2021/06/16 02:25:32;;;;;;;7.65;3.90;;;;;;;;;;4954934;28;20888;-89
2021/06/16 02:27:58;;;;;;;6.82;3.60;;;;;;;;;;4954822;28;20438;-87
2021/06/16 02:30:24;;;;;;;6.40;3.90;;;;;;;;;;4954588;28;20729;-88
2021/06/16 02:32:50;;;;;;;6.40;3.78;;;;;;;;;;4954400;28;20382;-87
2021/06/16 02:35:16;;;;;;;7.15;3.70;;;;;;;;;;4954740;28;20496;-88
2021/06/16 02:37:45;;;;;;;6.72;4.22;;;;;;;;;;4971802;28;20489;-88
2021/06/16 02:40:13;;;;;;;5.33;3.43;;;;;;;;;;4955118;28;20395;-89
2021/06/16 02:42:43;;;;;;;5.55;3.42;;;;;;;;;;4972343;28;20721;-90
2021/06/16 02:45:09;;;;;;;6.05;3.35;;;;;;;;;;4955862;28;20469;-89
2021/06/16 02:47:38;;;;;;;51.60;7.65;;;;;;;;;;4972078;28;20434;-88
2021/06/16 02:50:05;;;;;;;6.05;3.70;;;;;;;;;;4954352;28;20382;-87
2021/06/16 02:52:32;;;;;;;5.57;3.80;;;;;;;;;;4954363;28;20390;-88
2021/06/16 02:55:01;;;;;;;5.27;3.20;;;;;;;;;;4972400;28;20394;-87
2021/06/16 02:57:29;;;;;;;5.72;3.80;;;;;;;;;;4957673;28;20498;-88
2021/06/16 02:59:55;;;;;;;5.45;3.10;;;;;;;;;;4958153;28;20386;-88
2021/06/16 03:02:23;;;;;;;5.72;3.03;;;;;;;;;;4957964;28;20489;-87
2021/06/16 03:04:49;;;;;;;5.75;3.38;;;;;;;;;;4960890;28;20789;-86
2021/06/16 03:07:16;;;;;;;6.28;3.70;;;;;;;;;;4959946;28;20390;-87
2021/06/16 03:09:44;;;;;;;5.00;3.55;;;;;;;;;;4958535;28;20393;-86
2021/06/16 03:12:11;;;;;;;5.78;3.30;;;;;;;;;;4975425;28;20379;-87
2021/06/16 03:14:37;;;;;;;4.32;3.30;;;;;;;;;;4958010;28;20398;-87
2021/06/16 03:17:04;;;;;;;4.93;2.80;;;;;;;;;;4958742;28;20478;-87
2021/06/16 03:19:30;;;;;;;3.75;3.00;;;;;;;;;;4959765;28;20377;-87
2021/06/16 03:21:58;;;;;;;3.60;2.90;;;;;;;;;;4959185;28;20762;-88
2021/06/16 03:24:24;;;;;;;16.38;4.05;;;;;;;;;;4959749;28;20434;-88
2021/06/16 03:26:50;;;;;;;11.13;3.80;;;;;;;;;;4958924;28;20370;-88
2021/06/16 03:29:18;;;;;;;5.93;2.90;;;;;;;;;;4958229;28;20956;-86
2021/06/16 03:31:44;;;;;;;4.32;2.88;;;;;;;;;;4958163;28;20387;-87
2021/06/16 03:34:11;;;;;;;23.95;4.25;;;;;;;;;;4941780;28;21637;-86
2021/06/16 03:36:38;;;;;;;21.13;4.50;;;;;;;;;;4957115;28;20425;-87
2021/06/16 03:39:06;;;;;;;9.85;3.40;;;;;;;;;;4957208;28;20501;-86
2021/06/16 03:41:32;;;;;;;37.78;5.90;;;;;;;;;;4957499;28;20407;-87
2021/06/16 03:43:58;;;;;;;5.85;2.95;;;;;;;;;;4957406;28;20379;-87
2021/06/16 03:46:24;;;;;;;4.90;2.67;;;;;;;;;;4958399;28;20389;-88
2021/06/16 03:48:52;;;;;;;4.95;2.97;;;;;;;;;;4958501;28;20383;-88
2021/06/16 03:51:19;;;;;;;4.75;2.90;;;;;;;;;;4957965;28;20397;-87
2021/06/16 03:53:45;;;;;;;4.37;2.60;;;;;;;;;;4957549;28;20465;-88
2021/06/16 03:56:11;;;;;;;5.47;2.85;;;;;;;;;;4956787;28;20417;-87
2021/06/16 03:58:37;;;;;;;148.10;14.60;;;;;;;;;;4974425;28;21066;-87
2021/06/16 04:01:04;;;;;;;10.63;3.30;;;;;;;;;;4957122;28;20410;-87
2021/06/16 04:03:31;;;;;;;5.15;2.53;;;;;;;;;;4958272;28;20394;-88
2021/06/16 04:05:57;;;;;;;5.13;2.75;;;;;;;;;;4957058;28;20450;-88
2021/06/16 04:08:23;;;;;;;4.45;2.70;;;;;;;;;;4975254;28;20374;-88
2021/06/16 04:10:50;;;;;;;4.28;2.53;;;;;;;;;;4975943;28;20387;-87
2021/06/16 04:13:17;;;;;;;5.78;2.90;;;;;;;;;;4958240;28;20405;-87
2021/06/16 04:15:43;;;;;;;5.68;2.78;;;;;;;;;;4957848;28;20406;-89
2021/06/16 04:18:09;;;;;;;5.63;2.90;;;;;;;;;;4957766;28;20390;-88
2021/06/16 04:20:35;;;;;;;5.63;2.70;;;;;;;;;;4958236;28;20410;-88
2021/06/16 04:23:02;;;;;;;4.40;2.70;;;;;;;;;;4957156;28;20386;-87
2021/06/16 04:25:28;;;;;;;3.53;2.65;;;;;;;;;;4979976;28;20375;-88
2021/06/16 04:27:55;;;;;;;5.38;2.90;;;;;;;;;;4959046;28;20383;-88
2021/06/16 04:30:22;;;;;;;3.70;2.95;;;;;;;;;;4960506;28;20379;-86
2021/06/16 04:32:48;;;;;;;4.60;2.67;;;;;;;;;;4957670;28;20379;-87
2021/06/16 04:35:14;;;;;;;5.20;2.67;;;;;;;;;;4974996;28;20441;-87
2021/06/16 04:37:40;;;;;;;3.75;2.40;;;;;;;;;;4974931;28;20407;-87
2021/06/16 04:40:07;;;;;;;5.07;2.42;;;;;;;;;;4957670;28;20374;-87
2021/06/16 04:42:33;;;;;;;14.00;3.88;;;;;;;;;;4957289;28;20382;-88
2021/06/16 04:44:59;;;;;;;5.57;2.47;;;;;;;;;;4957215;28;20382;-85
2021/06/16 04:47:25;;;;;;;4.90;2.77;;;;;;;;;;4973686;28;20876;-88
2021/06/16 04:49:51;;;;;;;3.70;2.27;;;;;;;;;;4956245;28;20387;-88
2021/06/16 04:52:19;;;;;;;3.40;2.17;;;;;;;;;;4955866;28;20387;-88
2021/06/16 04:54:45;;;;;;;4.43;2.25;;;;;;;;;;4955560;28;20430;-88
2021/06/16 04:57:11;;;;;;;4.53;2.13;;;;;;;;;;4955441;28;20442;-86
2021/06/16 04:59:37;;;;;;;4.57;2.10;;;;;;;;;;4956611;28;20385;-87
2021/06/16 05:02:04;;;;;;;4.40;2.03;;;;;;;;;;4956275;28;20386;-88
2021/06/16 05:04:30;;;;;;;4.18;2.13;;;;;;;;;;4955428;28;20425;-85
2021/06/16 05:06:57;;;;;;;5.68;2.20;;;;;;;;;;4973196;28;20375;-88
2021/06/16 05:09:23;;;;;;;5.47;2.38;;;;;;;;;;4955640;28;20391;-88
2021/06/16 05:11:49;;;;;;;4.33;2.00;;;;;;;;;;4955971;28;20383;-87
2021/06/16 05:14:15;;;;;;;6.20;2.00;;;;;;;;;;4972295;28;20422;-86
2021/06/16 05:16:42;;;;;;;6.80;2.10;;;;;;;;;;4972630;28;20923;-87
2021/06/16 05:19:20;;;;;;;5.97;2.30;;;;;;;;;;4955057;28;20887;-87
2021/06/16 05:21:46;;;;;;;3.28;1.95;;;;;;;;;;4916920;29;20455;-86
2021/06/16 05:24:13;;;;;;;5.60;2.10;;;;;;;;;;4916980;29;20390;-87
2021/06/16 05:26:40;;;;;;;6.80;2.45;;;;;;;;;;4917519;29;20401;-88
2021/06/16 05:29:06;;;;;;;4.45;2.22;;;;;;;;;;4934385;29;20416;-88
2021/06/16 05:31:32;;;;;;;4.57;2.00;;;;;;;;;;4917692;29;20394;-86
2021/06/16 05:33:58;;;;;;;6.35;1.90;;;;;;;;;;4917240;29;20386;-88
2021/06/16 05:36:25;;;;;;;17.25;2.88;;;;;;;;;;4917401;29;20433;-89
2021/06/16 05:38:51;;;;;;;9.32;2.10;;;;;;;;;;4919443;29;20400;-89
2021/06/16 05:41:21;;;;;;;8.77;2.60;;;;;;;;;;4918970;29;20397;-89
2021/06/16 05:43:47;;;;;;;7.23;2.13;;;;;;;;;;4917619;29;20390;-88
2021/06/16 05:46:16;;;;;;;4.47;1.92;;;;;;;;;;4918435;29;20511;-89
2021/06/16 05:48:42;;;;;;;3.80;1.58;;;;;;;;;;4935216;29;20389;-90
2021/06/16 05:51:08;;;;;;;28.80;3.90;;;;;;;;;;4917583;29;20386;-88
2021/06/16 05:53:34;;;;;;;33.53;3.77;;;;;;;;;;4916467;29;20533;-88
2021/06/16 05:56:00;;;;;;;5.03;2.10;;;;;;;;;;4917320;29;20576;-86
2021/06/16 05:58:26;;;;;;;22.13;2.90;;;;;;;;;;4916730;29;20414;-88
2021/06/16 06:00:52;;;;;;;5.75;1.80;;;;;;;;;;4934336;29;20815;-89
2021/06/16 06:03:18;;;;;;;23.65;3.70;;;;;;;;;;4918026;29;20386;-89
2021/06/16 06:05:47;;;;;;;8.23;2.05;;;;;;;;;;4918334;29;20907;-89
2021/06/16 06:08:13;;;;;;;3.90;1.67;;;;;;;;;;4918164;29;20413;-89
2021/06/16 06:10:39;;;;;;;4.68;1.70;;;;;;;;;;4919599;29;20741;-89
2021/06/16 06:13:05;;;;;;;3.67;1.60;;;;;;;;;;4916928;29;20378;-90
2021/06/16 06:15:31;;;;;;;40.55;4.85;;;;;;;;;;4930668;29;20959;-88
2021/06/16 06:18:00;;;;;;;7.15;2.00;;;;;;;;;;4945078;28;20387;-90
2021/06/16 06:20:26;;;;;;;4.83;1.60;;;;;;;;;;4963391;28;20395;-87
2021/06/16 06:22:55;;;;;;;8.00;1.63;;;;;;;;;;4935952;29;20424;-89
2021/06/16 06:25:21;;;;;;;4.93;1.95;;;;;;;;;;4936472;29;20495;-87
2021/06/16 06:27:50;;;;;;;5.32;1.50;;;;;;;;;;4935758;29;20747;-88
2021/06/16 06:30:16;;;;;;;6.45;2.00;;;;;;;;;;4935187;29;20404;-88
2021/06/16 06:32:43;;;;;;;71.57;7.57;;;;;;;;;;4935924;29;20391;-88
2021/06/16 06:35:09;;;;;;;4.77;1.87;;;;;;;;;;4971182;28;20796;-89
2021/06/16 06:37:35;;;;;;;6.03;1.70;;;;;;;;;;4958574;28;20390;-90
2021/06/16 06:40:02;;;;;;;4.32;1.60;;;;;;;;;;4959008;28;20784;-92
2021/06/16 06:42:28;;;;;;;5.70;1.92;;;;;;;;;;4959707;28;20824;-87
2021/06/16 06:44:54;;;;;;;7.05;1.83;;;;;;;;;;4959331;28;20378;-88
2021/06/16 06:47:22;;;;;;;28.83;3.53;;;;;;;;;;4977454;28;20455;-89
2021/06/16 06:49:48;;;;;;;4.22;1.58;;;;;;;;;;4976677;28;20401;-89
2021/06/16 06:52:14;;;;;;;3.90;1.50;;;;;;;;;;4958614;28;20398;-90
2021/06/16 06:54:40;;;;;;;7.95;1.98;;;;;;;;;;4964453;28;20420;-87
2021/06/16 06:57:07;;;;;;;3.40;1.60;;;;;;;;;;4935630;29;20507;-90
2021/06/16 06:59:33;;;;;;;21.05;2.90;;;;;;;;;;4952857;28;20410;-89
2021/06/16 07:01:59;;;;;;;4.40;1.48;;;;;;;;;;4958423;28;20386;-89
2021/06/16 07:04:26;;;;;;;5.70;1.52;;;;;;;;;;4939440;29;20376;-88
2021/06/16 07:06:52;;;;;;;5.70;1.73;;;;;;;;;;4939635;29;20388;-90
2021/06/16 07:09:18;;;;;;;26.35;3.10;;;;;;;;;;4939769;29;20408;-90
2021/06/16 07:11:48;;;;;;;6.68;1.75;;;;;;;;;;4939996;29;20388;-90
2021/06/16 07:14:14;;;;;;;4.95;1.60;;;;;;;;;;4958728;28;20380;-88
2021/06/16 07:16:40;;;;;;;98.78;12.55;;;;;;;;;;4959113;28;20406;-90
2021/06/16 07:19:06;;;;;;;4.72;1.63;;;;;;;;;;4962445;28;20379;-88
2021/06/16 07:21:32;;;;;;;7.47;1.90;;;;;;;;;;4961130;28;20379;-89
2021/06/16 07:23:58;;;;;;;11.03;2.13;;;;;;;;;;4962833;28;20386;-86
2021/06/16 07:26:24;;;;;;;5.15;2.00;;;;;;;;;;4959061;28;20457;-91
2021/06/16 07:28:50;;;;;;;6.03;1.83;;;;;;;;;;4958484;28;20398;-89
2021/06/16 07:31:16;;;;;;;6.40;1.95;;;;;;;;;;4975658;28;20390;-91
2021/06/16 07:33:42;;;;;;;25.63;4.07;;;;;;;;;;4963101;28;20540;-91
2021/06/16 07:36:11;;;;;;;4.88;1.60;;;;;;;;;;4958825;28;20414;-87
2021/06/16 07:38:37;;;;;;;7.85;2.20;;;;;;;;;;4959168;28;20397;-90
2021/06/16 07:41:03;;;;;;;6.63;1.88;;;;;;;;;;4959213;28;20398;-88
2021/06/16 07:43:32;;;;;;;6.27;1.70;;;;;;;;;;4942603;29;20954;-90
2021/06/16 07:45:58;;;;;;;4.63;1.60;;;;;;;;;;4957774;29;20933;-88
2021/06/16 07:48:24;;;;;;;36.70;4.50;;;;;;;;;;4955935;28;20380;-90
2021/06/16 07:51:09;;;;;;;5.55;1.90;;;;;;;;;;4939154;29;20392;-90
2021/06/16 07:53:37;;;;;;;4.45;2.00;;;;;;;;;;4940364;29;20392;-90
2021/06/16 07:56:04;;;;;;;9.55;2.35;;;;;;;;;;4967843;28;20412;-91
2021/06/16 07:58:30;;;;;;;4.88;1.80;;;;;;;;;;4958374;28;20458;-87
2021/06/16 08:00:56;;;;;;;5.97;1.87;;;;;;;;;;4957539;28;20987;-86
2021/06/16 08:03:22;;;;;;;6.90;1.92;;;;;;;;;;4974286;28;20760;-86
2021/06/16 08:05:50;;;;;;;4.70;1.73;;;;;;;;;;4956250;28;20816;-89
2021/06/16 08:08:17;;;;;;;5.88;2.08;;;;;;;;;;4946759;29;20474;-91
2021/06/16 08:10:44;;;;;;;4.20;1.77;;;;;;;;;;4956395;28;20379;-90
2021/06/16 08:13:10;;;;;;;14.88;2.38;;;;;;;;;;4954328;28;20386;-88
2021/06/16 08:15:37;;;;;;;20.90;3.78;;;;;;;;;;4961847;28;20789;-86
2021/06/16 08:18:03;;;;;;;4.70;1.92;;;;;;;;;;4939187;29;20994;-89
2021/06/16 08:20:32;;;;;;;7.63;2.30;;;;;;;;;;4937731;29;20385;-89
2021/06/16 08:22:58;;;;;;;5.15;2.00;;;;;;;;;;4946448;28;20400;-89
2021/06/16 08:25:24;;;;;;;6.68;2.17;;;;;;;;;;4936524;28;20375;-90
2021/06/16 08:27:51;;;;;;;3.83;1.70;;;;;;;;;;4957698;28;20386;-88
2021/06/16 08:30:20;;;;;;;6.63;1.90;;;;;;;;;;4966797;28;20886;-89
2021/06/16 08:32:46;;;;;;;4.90;1.80;;;;;;;;;;4938368;29;20791;-90
2021/06/16 08:35:19;;;;;;;5.37;2.20;;;;;;;;;;4937565;29;20411;-89
2021/06/16 08:37:46;;;;;;;3.70;1.77;;;;;;;;;;4954702;29;20392;-90
2021/06/16 08:40:12;;;;;;;10.43;2.20;;;;;;;;;;4937843;29;20384;-91
2021/06/16 08:42:42;;;;;;;5.70;1.75;;;;;;;;;;4963344;28;20371;-89
2021/06/16 08:45:08;;;;;;;3.70;1.90;;;;;;;;;;4957872;28;20470;-87
2021/06/16 08:47:35;;;;;;;6.70;1.93;;;;;;;;;;4957493;28;20374;-90
2021/06/16 08:50:07;;;;;;;9.77;3.00;;;;;;;;;;4955556;28;20903;-88
2021/06/16 08:52:33;;;;;;;7.13;2.10;;;;;;;;;;4956469;28;20398;-89
2021/06/16 08:55:19;;;;;;;6.00;2.00;;;;;;;;;;4973801;28;21068;-89
2021/06/16 08:57:46;;;;;;;7.30;2.10;;;;;;;;;;4945187;28;20406;-89
2021/06/16 09:00:13;;;;;;;6.72;2.00;;;;;;;;;;4946272;28;20469;-89
2021/06/16 09:02:42;;;;;;;11.23;2.78;;;;;;;;;;4972640;28;20496;-92
2021/06/16 09:05:08;;;;;;;10.57;2.80;;;;;;;;;;4955255;28;20477;-89
2021/06/16 09:07:37;;;;;;;4.43;1.80;;;;;;;;;;4953192;28;20390;-89
2021/06/16 09:10:13;;;;;;;6.05;2.20;;;;;;;;;;4946649;29;20423;-90
2021/06/16 09:12:47;;;;;;;94.53;10.95;;;;;;;;;;4936620;29;20387;-86
2021/06/16 09:15:17;;;;;;;8.88;2.47;;;;;;;;;;4935506;29;20416;-86
2021/06/16 09:17:59;;;;;;;5.23;1.90;;;;;;;;;;4937621;29;20512;-90
2021/06/16 09:20:35;;;;;;;18.25;2.90;;;;;;;;;;5075837;27;20792;-89
2021/06/16 09:23:28;;;;;;;84.43;9.30;;;;;;;;;;5041469;27;20412;-90
2021/06/16 09:26:14;;;;;;;3.85;1.80;;;;;;;;;;5052383;27;20398;-84
2021/06/16 09:28:49;;;;;;;6.03;1.90;;;;;;;;;;5022048;28;20439;-89
2021/06/16 09:31:15;;;;;;;14.85;2.97;;;;;;;;;;5022198;28;20386;-89
2021/06/16 09:33:42;;;;;;;5.50;1.93;;;;;;;;;;5022445;28;20401;-91
2021/06/16 09:36:15;;;;;;;6.88;2.00;;;;;;;;;;5022356;28;20379;-89
2021/06/16 09:38:45;;;;;;;12.80;2.90;;;;;;;;;;5037375;27;20420;-87
2021/06/16 09:41:16;;;;;;;54.58;6.15;;;;;;;;;;5061587;27;20387;-90
2021/06/16 09:43:42;;;;;;;21.38;6.60;;;;;;;;;;5027565;28;20426;-87
2021/06/16 09:46:09;;;;;;;16.08;4.10;;;;;;;;;;5039315;28;20373;-90
2021/06/16 09:48:37;;;;;;;8.50;2.40;;;;;;;;;;5039851;27;20445;-91
2021/06/16 09:51:12;;;;;;;3.83;1.80;;;;;;;;;;5040348;27;20377;-88
2021/06/16 09:53:58;;;;;;;3.92;1.88;;;;;;;;;;5093715;27;20379;-91
2021/06/16 09:56:29;;;;;;;12.00;2.95;;;;;;;;;;5053703;27;20740;-89
2021/06/16 09:58:55;;;;;;;5.82;1.98;;;;;;;;;;5048897;27;20406;-89
2021/06/16 10:01:41;;;;;;;5.15;1.90;;;;;;;;;;5064393;27;20875;-87
2021/06/16 10:04:07;;;;;;;8.93;2.35;;;;;;;;;;5092820;27;20400;-92
2021/06/16 10:06:33;;;;;;;6.75;2.20;;;;;;;;;;5093144;27;20373;-89
2021/06/16 10:09:07;;;;;;;6.47;2.00;;;;;;;;;;5090085;27;20373;-86
2021/06/16 10:11:36;;;;;;;16.38;3.25;;;;;;;;;;5088944;27;20874;-91
2021/06/16 10:14:04;;;;;;;5.45;1.80;;;;;;;;;;5092409;27;20382;-91
2021/06/16 10:16:32;;;;;;;7.40;2.03;;;;;;;;;;5088369;27;20381;-90
2021/06/16 10:18:58;;;;;;;12.02;2.60;;;;;;;;;;5098281;27;20471;-90
2021/06/16 10:21:29;;;;;;;70.28;7.03;;;;;;;;;;5097566;27;20385;-91
2021/06/16 10:23:56;;;;;;;6.90;2.10;;;;;;;;;;5097373;27;20446;-90
2021/06/16 10:26:27;;;;;;;7.95;2.17;;;;;;;;;;5089381;27;20353;-90
2021/06/16 10:28:56;;;;;;;3.25;1.88;;;;;;;;;;5083330;27;20439;-90
2021/06/16 10:31:36;;;;;;;7.00;2.15;;;;;;;;;;5078553;27;20362;-88
2021/06/16 10:34:03;;;;;;;5.03;1.80;;;;;;;;;;5088860;27;20411;-92
2021/06/16 10:36:31;;;;;;;19.23;3.00;;;;;;;;;;5032564;27;20416;-90
2021/06/16 10:38:57;;;;;;;3.95;1.63;;;;;;;;;;5027783;28;20759;-93
2021/06/16 10:41:42;;;;;;;7.53;2.00;;;;;;;;;;5029595;28;20389;-92
2021/06/16 10:44:21;;;;;;;6.47;2.38;;;;;;;;;;5027717;28;20378;-89
2021/06/16 10:47:08;;;;;;;172.20;17.92;;;;;;;;;;5029760;28;20439;-91
2021/06/16 10:49:36;;;;;;;5.75;2.10;;;;;;;;;;5028619;28;20388;-91
2021/06/16 10:52:03;;;;;;;4.60;1.80;;;;;;;;;;5028430;27;20366;-92
2021/06/16 10:54:30;;;;;;;7.57;2.53;;;;;;;;;;5027623;28;20418;-93
2021/06/16 10:57:00;;;;;;;4.72;2.00;;;;;;;;;;5028133;28;20394;-92
2021/06/16 10:59:46;;;;;;;8.07;1.97;;;;;;;;;;5029062;28;20498;-90
2021/06/16 11:02:41;;;;;;;5.03;2.10;;;;;;;;;;5054759;27;20386;-89
2021/06/16 11:05:27;;;;;;;8.55;2.67;;;;;;;;;;5027628;28;20481;-89
2021/06/16 11:07:54;;;;;;;4.85;1.83;;;;;;;;;;5029366;27;20400;-90
2021/06/16 11:10:20;;;;;;;5.30;1.90;;;;;;;;;;5033689;28;20378;-90
2021/06/16 11:12:47;;;;;;;8.05;2.03;;;;;;;;;;5032556;28;20403;-91
2021/06/16 11:15:25;;;;;;;5.28;2.33;;;;;;;;;;5033087;28;20386;-92
2021/06/16 11:17:52;;;;;;;6.15;1.90;;;;;;;;;;5027362;28;20377;-91
2021/06/16 11:20:32;;;;;;;5.75;2.00;;;;;;;;;;5026815;28;20523;-90
2021/06/16 11:22:59;;;;;;;6.23;2.30;;;;;;;;;;5036320;27;20397;-91
2021/06/16 11:25:40;;;;;;;7.18;2.03;;;;;;;;;;5026950;28;20870;-92
2021/06/16 11:28:10;;;;;;;5.40;1.90;;;;;;;;;;5028345;28;20385;-91
2021/06/16 11:30:48;;;;;;;7.00;2.25;;;;;;;;;;5028658;28;20380;-91
2021/06/16 11:33:21;;;;;;;6.28;2.47;;;;;;;;;;5025423;28;20439;-92
2021/06/16 11:35:59;;;;;;;4.82;2.03;;;;;;;;;;5026248;28;20478;-91
2021/06/16 11:38:49;;;;;;;3.35;1.90;;;;;;;;;;5026088;28;20394;-92
2021/06/16 11:41:39;;;;;;;4.95;1.70;;;;;;;;;;5027688;28;20937;-94
2021/06/16 11:44:09;;;;;;;4.05;2.10;;;;;;;;;;5004752;28;20391;-91
2021/06/16 11:46:38;;;;;;;22.05;3.60;;;;;;;;;;5006525;28;20440;-90
2021/06/16 11:49:06;;;;;;;4.75;2.10;;;;;;;;;;5006180;28;20387;-91
2021/06/16 11:51:49;;;;;;;12.05;2.40;;;;;;;;;;5005655;28;20375;-91
2021/06/16 11:54:27;;;;;;;7.93;2.55;;;;;;;;;;5006377;28;20777;-91
2021/06/16 11:57:09;;;;;;;9.20;2.20;;;;;;;;;;5008744;28;20869;-90
2021/06/16 11:59:42;;;;;;;19.33;4.75;;;;;;;;;;5006916;28;20407;-92
2021/06/16 12:02:13;;;;;;;51.58;5.95;;;;;;;;;;5007096;28;20383;-88
2021/06/16 12:04:46;;;;;;;6.82;2.65;;;;;;;;;;5006990;28;20376;-90
2021/06/16 12:07:12;;;;;;;8.30;3.00;;;;;;;;;;5007024;28;20426;-92
2021/06/16 12:09:49;;;;;;;4.75;2.10;;;;;;;;;;5006230;28;20380;-90
2021/06/16 12:12:20;;;;;;;14.57;3.20;;;;;;;;;;5007096;28;20379;-91
2021/06/16 12:14:53;;;;;;;4.57;2.08;;;;;;;;;;5008211;28;20379;-91
2021/06/16 12:17:19;;;;;;;3.72;2.20;;;;;;;;;;5006644;28;20488;-90
2021/06/16 12:19:48;;;;;;;5.07;2.10;;;;;;;;;;5006220;28;20506;-92
2021/06/16 12:22:16;;;;;;;4.57;2.30;;;;;;;;;;5006139;28;20448;-90
2021/06/16 12:24:45;;;;;;;5.32;2.08;;;;;;;;;;5006815;28;20460;-90
2021/06/16 12:27:20;;;;;;;8.00;2.38;;;;;;;;;;5006929;28;20423;-90
2021/06/16 12:29:51;;;;;;;3.65;2.00;;;;;;;;;;5006409;28;20438;-90
2021/06/16 12:32:31;;;;;;;5.82;2.20;;;;;;;;;;5007167;28;20387;-91
2021/06/16 12:35:28;;;;;;;11.77;2.65;;;;;;;;;;5006880;28;20440;-91
2021/06/16 12:37:55;;;;;;;8.30;2.40;;;;;;;;;;5007342;28;20411;-89
2021/06/16 12:40:34;;;;;;;6.10;2.45;;;;;;;;;;5006800;28;20499;-89
2021/06/16 12:43:00;;;;;;;5.55;2.20;;;;;;;;;;5009899;28;20384;-89
2021/06/16 12:45:38;;;;;;;5.70;2.40;;;;;;;;;;5008570;28;20423;-89
2021/06/16 12:48:16;;;;;;;6.35;2.25;;;;;;;;;;5006588;28;20395;-89
2021/06/16 12:50:42;;;;;;;3.17;1.80;;;;;;;;;;5006314;28;20387;-88
2021/06/16 12:53:12;;;;;;;4.13;2.17;;;;;;;;;;5005799;28;20383;-88
2021/06/16 12:55:47;;;;;;;5.95;2.00;;;;;;;;;;5005198;28;20733;-89
2021/06/16 12:58:14;;;;;;;5.10;2.17;;;;;;;;;;5005570;28;20433;-87
2021/06/16 13:00:40;;;;;;;36.78;5.30;;;;;;;;;;5005874;28;20474;-89
2021/06/16 13:03:13;;;;;;;5.87;2.53;;;;;;;;;;5061911;27;20453;-90
2021/06/16 13:05:40;;;;;;;28.05;3.70;;;;;;;;;;5129093;27;20870;-91
2021/06/16 13:08:08;;;;;;;8.63;2.20;;;;;;;;;;5106103;27;20406;-92
2021/06/16 13:10:40;;;;;;;4.22;1.90;;;;;;;;;;5025294;28;20409;-91
2021/06/16 13:13:08;;;;;;;5.15;2.20;;;;;;;;;;5025324;28;20466;-90
2021/06/16 13:15:43;;;;;;;17.65;3.33;;;;;;;;;;5026291;28;20381;-90
2021/06/16 13:18:22;;;;;;;11.10;2.90;;;;;;;;;;5028168;28;20428;-89
2021/06/16 13:20:50;;;;;;;3.83;2.33;;;;;;;;;;5044697;28;20953;-86
2021/06/16 13:23:17;;;;;;;4.43;1.95;;;;;;;;;;5045153;28;20372;-89
2021/06/16 13:25:44;;;;;;;7.30;2.33;;;;;;;;;;5045058;28;20382;-91
2021/06/16 13:28:19;;;;;;;7.50;2.70;;;;;;;;;;5046416;28;20379;-88
2021/06/16 13:30:45;;;;;;;8.73;2.85;;;;;;;;;;5045707;28;20538;-88
2021/06/16 13:33:12;;;;;;;10.15;3.03;;;;;;;;;;5044811;28;20364;-87
2021/06/16 13:35:45;;;;;;;3.67;2.17;;;;;;;;;;5044952;28;20388;-89
2021/06/16 13:38:11;;;;;;;5.97;2.90;;;;;;;;;;5046183;28;20380;-88
2021/06/16 13:40:40;;;;;;;4.32;2.25;;;;;;;;;;5045954;28;20999;-90
2021/06/16 13:43:06;;;;;;;7.05;2.42;;;;;;;;;;5045716;28;20384;-88
2021/06/16 13:45:32;;;;;;;3.90;2.00;;;;;;;;;;5024250;27;20489;-90
2021/06/16 13:47:58;;;;;;;3.20;2.10;;;;;;;;;;5024112;28;20370;-93
2021/06/16 13:50:27;;;;;;;3.53;1.88;;;;;;;;;;5023482;28;20382;-93
2021/06/16 13:52:53;;;;;;;90.32;11.00;;;;;;;;;;5024706;28;20504;-90
2021/06/16 13:55:19;;;;;;;8.40;2.57;;;;;;;;;;5028383;28;20434;-90
2021/06/16 13:57:45;;;;;;;7.35;2.60;;;;;;;;;;5028562;28;20389;-90
2021/06/16 14:00:14;;;;;;;11.07;2.67;;;;;;;;;;5025635;28;20406;-91
2021/06/16 14:02:44;;;;;;;5.55;2.25;;;;;;;;;;5025258;28;20470;-89
2021/06/16 14:05:11;;;;;;;8.05;2.35;;;;;;;;;;5025221;28;20382;-92
2021/06/16 14:07:37;;;;;;;5.70;2.42;;;;;;;;;;5030169;28;20472;-89
2021/06/16 14:10:14;;;;;;;8.00;2.63;;;;;;;;;;5029566;28;20465;-90
2021/06/16 14:12:40;;;;;;;4.70;2.10;;;;;;;;;;5030886;27;20883;-91
2021/06/16 14:15:12;;;;;;;3.90;2.20;;;;;;;;;;5130647;27;20373;-92
2021/06/16 14:17:38;;;;;;;6.30;2.30;;;;;;;;;;5133444;27;20372;-89
2021/06/16 14:20:05;;;;;;;4.60;2.22;;;;;;;;;;5132262;27;20758;-90
2021/06/16 14:22:31;;;;;;;4.80;2.05;;;;;;;;;;5131672;27;20408;-91
2021/06/16 14:24:58;;;;;;;5.05;2.45;;;;;;;;;;5132747;27;20409;-90
2021/06/16 14:27:30;;;;;;;9.00;2.60;;;;;;;;;;5133653;27;20396;-89
2021/06/16 14:29:56;;;;;;;6.35;2.78;;;;;;;;;;5131957;27;20379;-90
2021/06/16 14:32:22;;;;;;;34.33;5.40;;;;;;;;;;5132035;27;20361;-88
2021/06/16 14:34:50;;;;;;;7.90;2.53;;;;;;;;;;5132335;27;20375;-89
2021/06/16 14:37:16;;;;;;;5.53;2.20;;;;;;;;;;5133208;27;20389;-88
2021/06/16 14:39:42;;;;;;;4.60;2.42;;;;;;;;;;5128873;27;20394;-88
2021/06/16 14:42:09;;;;;;;6.65;2.38;;;;;;;;;;5134887;27;20424;-90
2021/06/16 14:44:35;;;;;;;64.45;8.98;;;;;;;;;;5089402;27;20380;-91
2021/06/16 14:47:01;;;;;;;126.53;14.57;;;;;;;;;;5031350;28;20384;-89
2021/06/16 14:49:28;;;;;;;8.73;3.08;;;;;;;;;;5024994;27;20414;-90